Time;durP1;ratioP1;P1;durP2;ratioP2;P2;SDS_P1;SDS_P2;PMS_P1;PMS_P2;Temp;Humidity;BMP_temperature;BMP_pressure;BME280_temperature;BME280_humidity;BME280_pressure;Samples;Min_cycle;Max_cycle;Signal;HPM_P1;HPM_P2
2023/07/22 00:01:52;;;;;;;4.10;3.80;;;;;;;16.94;100.00;98977.25;5071725;28;20201;-76
2023/07/22 00:04:19;;;;;;;4.07;3.50;;;;;;;17.21;100.00;98954.41;5071953;28;20239;-77
2023/07/22 00:06:46;;;;;;;3.57;3.23;;;;;;;17.24;100.00;98979.00;5071127;28;20234;-77
2023/07/22 00:09:12;;;;;;;2.80;2.60;;;;;;;17.50;100.00;98966.94;5071320;28;20204;-77
2023/07/22 00:11:39;;;;;;;4.20;2.87;;;;;;;17.49;100.00;98975.38;5061746;28;20198;-77
2023/07/22 00:14:06;;;;;;;2.80;2.60;;;;;;;17.49;100.00;98983.50;5071192;28;20190;-77
2023/07/22 00:16:33;;;;;;;3.77;2.77;;;;;;;17.44;100.00;98988.94;5071348;28;20193;-76
2023/07/22 00:19:00;;;;;;;2.70;2.50;;;;;;;17.39;100.00;98986.25;5071025;28;20261;-77
2023/07/22 00:21:28;;;;;;;3.07;2.50;;;;;;;17.44;100.00;98989.75;5056638;28;20217;-76
2023/07/22 00:23:55;;;;;;;2.60;2.40;;;;;;;17.63;100.00;98986.41;5070986;28;20229;-76
2023/07/22 00:26:21;;;;;;;3.20;2.50;;;;;;;17.62;100.00;98990.22;5071703;28;20260;-77
2023/07/22 00:28:48;;;;;;;2.70;2.27;;;;;;;17.76;100.00;99000.13;5071199;28;20265;-76
2023/07/22 00:31:15;;;;;;;2.47;2.23;;;;;;;17.68;100.00;98991.81;5070511;28;20203;-76
2023/07/22 00:33:41;;;;;;;2.57;2.37;;;;;;;17.83;100.00;98999.81;5073296;28;20194;-77
2023/07/22 00:36:08;;;;;;;4.07;2.57;;;;;;;17.90;100.00;98994.91;5074636;28;20675;-76
2023/07/22 00:38:35;;;;;;;2.60;2.40;;;;;;;17.82;100.00;98999.03;5060347;28;20218;-77
2023/07/22 00:41:04;;;;;;;2.70;2.50;;;;;;;17.89;100.00;99004.09;5053444;28;20239;-75
2023/07/22 00:43:31;;;;;;;2.77;2.57;;;;;;;18.39;100.00;99000.97;5048030;28;20201;-77
2023/07/22 00:45:58;;;;;;;3.77;2.10;;;;;;;18.61;100.00;99003.25;5072679;28;20200;-77
2023/07/22 00:48:27;;;;;;;3.23;2.30;;;;;;;18.69;100.00;99012.66;5074530;28;20189;-76
2023/07/22 00:50:54;;;;;;;4.63;2.20;;;;;;;18.64;100.00;99018.13;5067480;28;20190;-77
2023/07/22 00:53:21;;;;;;;2.60;2.40;;;;;;;18.35;100.00;99009.97;5072566;28;20199;-77
2023/07/22 00:55:47;;;;;;;3.33;2.60;;;;;;;18.36;100.00;99012.41;5062619;28;20186;-75
2023/07/22 00:58:15;;;;;;;2.23;2.03;;;;;;;18.53;100.00;99024.72;5074535;28;20595;-76
2023/07/22 01:00:42;;;;;;;3.00;2.60;;;;;;;18.35;100.00;99027.03;5073942;28;20202;-76
2023/07/22 01:03:09;;;;;;;3.00;2.47;;;;;;;18.38;100.00;99023.75;5073805;28;20230;-76
2023/07/22 01:05:37;;;;;;;2.90;2.70;;;;;;;18.32;100.00;99024.09;5063936;28;20225;-75
2023/07/22 01:08:04;;;;;;;4.00;2.60;;;;;;;18.24;100.00;99025.53;5093239;28;20197;-76
2023/07/22 01:10:30;;;;;;;2.83;2.27;;;;;;;18.23;100.00;99036.66;5094361;28;20649;-77
2023/07/22 01:12:57;;;;;;;2.80;2.30;;;;;;;18.39;100.00;99044.34;5076666;28;20204;-76
2023/07/22 01:15:25;;;;;;;3.70;2.50;;;;;;;18.45;100.00;99043.22;5091383;28;20293;-76
2023/07/22 01:17:52;;;;;;;2.77;2.57;;;;;;;18.59;100.00;99050.72;5093095;28;20586;-77
2023/07/22 01:20:20;;;;;;;3.80;2.47;;;;;;;18.65;100.00;99063.16;5090925;28;20660;-77
2023/07/22 01:22:54;;;;;;;2.90;2.43;;;;;;;18.55;100.00;99080.34;5094243;28;20726;-76
2023/07/22 01:25:24;;;;;;;3.40;2.47;;;;;;;18.44;100.00;99081.47;5093921;28;20249;-75
2023/07/22 01:27:52;;;;;;;3.23;2.47;;;;;;;18.45;100.00;99094.75;5093231;28;20189;-76
2023/07/22 01:30:19;;;;;;;4.40;2.50;;;;;;;18.41;100.00;99095.63;5093722;28;20186;-75
2023/07/22 01:32:50;;;;;;;3.47;2.70;;;;;;;18.42;100.00;99097.25;5092907;28;20199;-76
2023/07/22 01:35:17;;;;;;;3.70;2.70;;;;;;;18.53;100.00;99098.78;5088133;28;20290;-76
2023/07/22 01:37:44;;;;;;;2.87;2.47;;;;;;;18.58;100.00;99095.22;5093202;28;20272;-77
2023/07/22 01:40:12;;;;;;;3.13;2.37;;;;;;;18.45;100.00;99097.47;5093148;28;20198;-76
2023/07/22 01:42:42;;;;;;;3.03;2.43;;;;;;;18.44;100.00;99101.28;5092169;28;20673;-75
2023/07/22 01:45:10;;;;;;;5.13;2.67;;;;;;;18.41;100.00;99106.47;5089163;28;20661;-75
2023/07/22 01:47:38;;;;;;;2.90;2.60;;;;;;;18.27;100.00;99109.00;5090802;28;20622;-76
2023/07/22 01:50:09;;;;;;;2.90;2.60;;;;;;;18.26;100.00;99112.81;5094056;28;20190;-75
2023/07/22 01:52:36;;;;;;;4.30;2.73;;;;;;;18.34;100.00;99112.19;5092671;28;20191;-77
2023/07/22 01:55:05;;;;;;;3.53;2.70;;;;;;;18.46;100.00;99107.25;5093630;28;20201;-77
2023/07/22 01:57:32;;;;;;;2.80;2.60;;;;;;;18.44;100.00;99101.28;5091925;28;20234;-76
2023/07/22 01:59:59;;;;;;;5.83;2.60;;;;;;;18.54;100.00;99097.72;5075516;28;20197;-76
2023/07/22 02:02:26;;;;;;;2.73;2.43;;;;;;;18.40;100.00;99100.22;5092005;28;20202;-76
2023/07/22 02:04:53;;;;;;;2.90;2.60;;;;;;;18.59;100.00;99094.13;5092092;28;20655;-76
2023/07/22 02:07:20;;;;;;;3.10;2.80;;;;;;;18.68;100.00;99095.13;5113052;28;20305;-76
2023/07/22 02:09:46;;;;;;;2.80;2.60;;;;;;;18.57;100.00;99107.97;5095201;28;20213;-77
2023/07/22 02:12:13;;;;;;;3.57;2.70;;;;;;;18.54;100.00;99113.16;5090714;28;20598;-76
2023/07/22 02:14:40;;;;;;;3.37;2.47;;;;;;;18.60;100.00;99129.13;5104948;28;20226;-76
2023/07/22 02:17:09;;;;;;;3.10;2.83;;;;;;;18.70;100.00;99129.06;5093822;28;20307;-76
2023/07/22 02:19:36;;;;;;;4.23;2.63;;;;;;;18.77;100.00;99134.94;5079828;28;20254;-76
2023/07/22 02:22:04;;;;;;;4.70;3.00;;;;;;;18.68;100.00;99136.66;5086653;28;20713;-77
2023/07/22 02:24:31;;;;;;;3.30;2.43;;;;;;;18.74;100.00;99135.53;5100051;28;20206;-77
2023/07/22 02:26:58;;;;;;;3.77;2.40;;;;;;;18.62;100.00;99137.78;5099401;28;20196;-76
2023/07/22 02:29:25;;;;;;;3.00;2.70;;;;;;;18.64;100.00;99142.94;5094960;28;20613;-77
2023/07/22 02:31:52;;;;;;;4.17;2.70;;;;;;;18.60;100.00;99152.75;5096365;28;20191;-76
2023/07/22 02:34:19;;;;;;;5.03;2.53;;;;;;;18.59;100.00;99154.63;5089666;28;20266;-76
2023/07/22 02:36:45;;;;;;;3.57;2.70;;;;;;;18.67;100.00;99161.34;5092223;28;20232;-76
2023/07/22 02:39:12;;;;;;;4.00;2.83;;;;;;;18.74;100.00;99151.81;5090433;28;20229;-76
2023/07/22 02:41:39;;;;;;;3.53;3.03;;;;;;;18.72;100.00;99155.88;5077306;28;20194;-76
2023/07/22 02:44:06;;;;;;;3.83;2.90;;;;;;;18.60;100.00;99150.03;5072367;28;20202;-77
2023/07/22 02:46:33;;;;;;;5.67;3.00;;;;;;;18.76;100.00;99156.94;5102275;28;20275;-76
2023/07/22 02:49:00;;;;;;;3.23;2.93;;;;;;;18.75;100.00;99153.44;5081632;28;20210;-78
2023/07/22 02:51:26;;;;;;;3.87;2.80;;;;;;;18.62;100.00;99148.63;5097997;28;20213;-78
2023/07/22 02:53:53;;;;;;;3.27;2.97;;;;;;;18.48;100.00;99148.44;5086365;28;20191;-78
2023/07/22 02:56:20;;;;;;;3.87;2.70;;;;;;;18.43;100.00;99153.09;5111427;28;20192;-77
2023/07/22 02:58:47;;;;;;;2.70;2.50;;;;;;;18.35;100.00;99142.84;5100470;28;20218;-76
2023/07/22 03:01:14;;;;;;;3.43;2.90;;;;;;;18.36;100.00;99164.28;5083945;28;20322;-76
2023/07/22 03:03:41;;;;;;;3.00;2.70;;;;;;;18.39;100.00;99163.69;5088720;28;20195;-78
2023/07/22 03:06:09;;;;;;;2.87;2.67;;;;;;;18.28;100.00;99164.88;5077631;28;20300;-78
2023/07/22 03:08:36;;;;;;;4.07;2.87;;;;;;;18.26;100.00;99163.50;5071746;28;20630;-79
2023/07/22 03:11:03;;;;;;;3.63;2.83;;;;;;;18.26;100.00;99166.22;5071724;28;20200;-79
2023/07/22 03:13:30;;;;;;;4.00;2.83;;;;;;;18.17;100.00;99166.00;5037154;28;20213;-79
2023/07/22 03:15:58;;;;;;;3.27;2.63;;;;;;;18.17;100.00;99165.19;5050611;28;20692;-78
2023/07/22 03:18:24;;;;;;;3.97;2.70;;;;;;;18.28;100.00;99174.91;5064884;28;20289;-78
2023/07/22 03:20:51;;;;;;;4.77;2.77;;;;;;;18.18;100.00;99170.34;5071555;28;20203;-78
2023/07/22 03:23:19;;;;;;;3.47;2.93;;;;;;;18.22;100.00;99171.41;5048146;28;20763;-77
2023/07/22 03:25:47;;;;;;;2.90;2.60;;;;;;;18.17;100.00;99173.34;5071555;28;20192;-78
2023/07/22 03:28:14;;;;;;;3.00;2.80;;;;;;;18.22;100.00;99171.41;5069965;28;20195;-79
2023/07/22 03:30:41;;;;;;;3.10;2.60;;;;;;;18.24;100.00;99169.25;5070953;28;20193;-77
2023/07/22 03:33:08;;;;;;;2.60;2.40;;;;;;;18.17;100.00;99162.47;5071070;28;20263;-79
2023/07/22 03:35:36;;;;;;;3.63;2.70;;;;;;;18.13;100.00;99174.97;5051509;28;20200;-79
2023/07/22 03:38:04;;;;;;;2.73;2.53;;;;;;;18.20;100.00;99175.47;5065970;28;20614;-80
2023/07/22 03:40:32;;;;;;;3.00;2.17;;;;;;;18.15;100.00;99176.31;5061102;28;20264;-78
2023/07/22 03:42:59;;;;;;;2.70;2.50;;;;;;;18.20;100.00;99186.31;5054517;28;20193;-79
2023/07/22 03:45:26;;;;;;;2.90;2.60;;;;;;;18.18;100.00;99192.03;5063078;28;20199;-78
2023/07/22 03:47:58;;;;;;;3.00;2.23;;;;;;;18.23;100.00;99197.44;5070039;28;20546;-77
2023/07/22 03:50:25;;;;;;;4.30;2.33;;;;;;;18.40;100.00;99197.06;5064027;28;20207;-76
2023/07/22 03:52:52;;;;;;;3.33;2.40;;;;;;;18.49;100.00;99198.88;5069693;28;20713;-76
2023/07/22 03:55:19;;;;;;;3.40;2.20;;;;;;;18.50;100.00;99199.72;5070892;28;20194;-78
2023/07/22 03:57:46;;;;;;;2.97;2.10;;;;;;;18.60;100.00;99196.97;5071320;28;20742;-77
2023/07/22 04:00:13;;;;;;;3.20;2.10;;;;;;;18.79;100.00;99191.66;5069512;28;20536;-77
2023/07/22 04:02:40;;;;;;;2.30;2.10;;;;;;;18.84;100.00;99195.16;5053186;28;20215;-76
2023/07/22 04:05:08;;;;;;;2.80;2.40;;;;;;;19.22;100.00;99195.38;5056046;28;20667;-78
2023/07/22 04:07:35;;;;;;;2.13;1.93;;;;;;;20.30;100.00;99197.38;5069978;28;20202;-78
2023/07/22 04:10:02;;;;;;;4.03;2.13;;;;;;;21.57;100.00;99206.22;5040647;28;20212;-75
2023/07/22 04:12:29;;;;;;;3.07;2.20;;;;;;;22.46;100.00;99190.19;5075406;28;20204;-74
2023/07/22 04:14:56;;;;;;;2.70;2.33;;;;;;;23.47;100.00;99195.94;5075148;28;20672;-78
2023/07/22 04:17:23;;;;;;;2.30;2.10;;;;;;;24.35;100.00;99205.72;5074802;28;20284;-75
2023/07/22 04:19:53;;;;;;;2.00;1.90;;;;;;;25.09;100.00;99200.09;5074980;28;20251;-76
2023/07/22 04:22:21;;;;;;;3.35;1.73;;;;;;;25.71;100.00;99202.34;5073331;28;20188;-76
2023/07/22 04:24:50;;;;;;;2.10;1.90;;;;;;;26.18;100.00;99197.53;5074570;28;20213;-76
2023/07/22 04:27:19;;;;;;;3.00;1.83;;;;;;;26.60;96.41;99203.91;5074901;28;20280;-75
2023/07/22 04:29:46;;;;;;;2.63;1.90;;;;;;;26.23;92.25;99203.69;5074447;28;20250;-75
2023/07/22 04:32:13;;;;;;;2.90;1.90;;;;;;;24.95;96.21;99202.19;5074875;28;20613;-76
2023/07/22 04:34:40;;;;;;;2.45;1.88;;;;;;;24.02;99.09;99209.97;5068229;28;20194;-74
2023/07/22 04:37:07;;;;;;;2.65;2.15;;;;;;;23.06;100.00;99201.59;5059840;28;20627;-76
2023/07/22 04:39:34;;;;;;;2.13;1.90;;;;;;;22.33;100.00;99205.50;5074544;28;20695;-76
2023/07/22 04:42:01;;;;;;;2.50;1.80;;;;;;;21.71;100.00;99199.66;5074431;28;20664;-75
2023/07/22 04:44:28;;;;;;;2.63;2.00;;;;;;;21.26;100.00;99205.97;5074648;28;20606;-75
2023/07/22 04:46:55;;;;;;;2.72;1.80;;;;;;;21.16;100.00;99208.88;5074246;28;20227;-76
2023/07/22 04:49:22;;;;;;;2.28;1.90;;;;;;;20.94;100.00;99213.03;5069141;28;20199;-75
2023/07/22 04:51:49;;;;;;;2.15;1.45;;;;;;;20.89;100.00;99217.75;5074301;28;20196;-75
2023/07/22 04:54:17;;;;;;;3.23;1.90;;;;;;;20.67;100.00;99216.44;5074863;28;20204;-76
2023/07/22 04:56:44;;;;;;;2.88;2.10;;;;;;;20.84;100.00;99221.34;5074691;28;20274;-75
2023/07/22 04:59:12;;;;;;;2.47;1.73;;;;;;;20.73;100.00;99224.50;5074172;28;20565;-76
2023/07/22 05:01:39;;;;;;;2.67;1.80;;;;;;;20.56;100.00;99230.50;5074114;28;20250;-75
2023/07/22 05:04:06;;;;;;;2.70;1.67;;;;;;;20.69;100.00;99237.91;5074381;28;20253;-75
2023/07/22 05:06:32;;;;;;;2.00;1.80;;;;;;;20.62;100.00;99232.03;5073712;28;20232;-75
2023/07/22 05:08:59;;;;;;;1.60;1.50;;;;;;;20.64;100.00;99230.63;5074303;28;20217;-74
2023/07/22 05:11:26;;;;;;;1.87;1.53;;;;;;;20.80;100.00;99225.78;5073910;28;20245;-75
2023/07/22 05:13:53;;;;;;;1.97;1.73;;;;;;;20.69;100.00;99226.22;5074631;28;20241;-75
2023/07/22 05:16:21;;;;;;;2.07;1.83;;;;;;;20.68;100.00;99230.84;5070049;28;20256;-75
2023/07/22 05:18:48;;;;;;;2.63;1.70;;;;;;;20.73;100.00;99232.69;5072736;28;20260;-76
2023/07/22 05:21:14;;;;;;;2.83;1.90;;;;;;;20.71;100.00;99230.28;5072550;28;20193;-75
2023/07/22 05:23:41;;;;;;;2.77;1.83;;;;;;;20.83;100.00;99232.53;5070531;28;20196;-75
2023/07/22 05:26:08;;;;;;;3.17;2.23;;;;;;;20.76;100.00;99234.84;5071100;28;20199;-75
2023/07/22 05:28:34;;;;;;;7.10;2.60;;;;;;;20.89;100.00;99234.06;5073308;28;20198;-74
2023/07/22 05:31:01;;;;;;;1.97;1.67;;;;;;;20.57;100.00;99232.94;5072225;28;20252;-75
2023/07/22 05:33:28;;;;;;;4.20;2.07;;;;;;;20.84;100.00;99242.31;5073349;28;20275;-75
2023/07/22 05:35:54;;;;;;;5.57;2.27;;;;;;;20.99;100.00;99251.06;5070635;28;20200;-75
2023/07/22 05:38:21;;;;;;;4.13;1.90;;;;;;;20.92;100.00;99253.34;5073279;28;20194;-74
2023/07/22 05:40:48;;;;;;;4.33;1.70;;;;;;;21.06;100.00;99262.38;5073359;28;20197;-75
2023/07/22 05:43:15;;;;;;;2.50;1.77;;;;;;;21.02;100.00;99261.34;5073108;28;20216;-76
2023/07/22 05:45:41;;;;;;;2.60;1.80;;;;;;;21.06;100.00;99261.56;5073192;28;20224;-75
2023/07/22 05:48:08;;;;;;;4.63;2.00;;;;;;;21.13;100.00;99263.94;5073172;28;20204;-76
2023/07/22 05:50:35;;;;;;;2.73;1.70;;;;;;;21.22;100.00;99256.72;5072989;28;20264;-75
2023/07/22 05:53:01;;;;;;;4.13;2.10;;;;;;;21.33;100.00;99248.06;5065398;28;20192;-75
2023/07/22 05:55:28;;;;;;;3.17;1.77;;;;;;;21.56;100.00;99246.28;5069975;28;20732;-74
2023/07/22 05:57:55;;;;;;;3.70;2.20;;;;;;;21.57;100.00;99261.53;5055262;28;20253;-75
2023/07/22 06:00:21;;;;;;;5.83;2.10;;;;;;;21.43;100.00;99252.53;5072923;28;20203;-74
2023/07/22 06:02:48;;;;;;;2.00;1.60;;;;;;;21.16;100.00;99269.63;5066893;28;20200;-74
2023/07/22 06:05:15;;;;;;;2.40;1.80;;;;;;;21.47;100.00;99251.63;5067736;28;20191;-75
2023/07/22 06:07:42;;;;;;;6.30;2.07;;;;;;;21.59;100.00;99262.06;5072777;28;20198;-76
2023/07/22 06:10:10;;;;;;;6.57;2.27;;;;;;;21.66;100.00;99267.09;5072785;28;20201;-75
2023/07/22 06:12:36;;;;;;;3.37;1.83;;;;;;;21.61;100.00;99257.09;5055283;28;20198;-75
2023/07/22 06:15:04;;;;;;;7.30;2.80;;;;;;;21.84;100.00;99255.31;5069911;28;20192;-76
2023/07/22 06:17:31;;;;;;;2.30;2.00;;;;;;;21.81;100.00;99255.91;5032271;28;20223;-75
2023/07/22 06:19:57;;;;;;;3.47;1.63;;;;;;;21.85;100.00;99254.19;5072250;28;20275;-76
2023/07/22 06:22:24;;;;;;;2.77;1.63;;;;;;;21.88;100.00;99259.84;5072122;28;20267;-75
2023/07/22 06:24:51;;;;;;;2.73;2.10;;;;;;;21.86;100.00;99262.09;5072502;28;20263;-75
2023/07/22 06:27:18;;;;;;;2.40;2.00;;;;;;;21.88;100.00;99256.34;5072263;28;20201;-74
2023/07/22 06:29:45;;;;;;;2.93;2.10;;;;;;;21.83;100.00;99264.63;5072223;28;20197;-77
2023/07/22 06:32:12;;;;;;;1.83;1.65;;;;;;;21.86;100.00;99266.72;5072270;28;20200;-75
2023/07/22 06:34:38;;;;;;;2.35;1.90;;;;;;;21.92;100.00;99255.44;5072625;28;20195;-75
2023/07/22 06:37:05;;;;;;;1.80;1.67;;;;;;;21.98;100.00;99258.09;5072251;28;20675;-74
2023/07/22 06:39:32;;;;;;;3.63;2.00;;;;;;;21.89;100.00;99266.94;5058758;28;20238;-76
2023/07/22 06:41:58;;;;;;;1.85;1.70;;;;;;;21.95;100.00;99260.31;5070510;28;20195;-75
2023/07/22 06:44:25;;;;;;;2.40;1.90;;;;;;;21.98;100.00;99258.88;5057422;28;20205;-75
2023/07/22 06:46:52;;;;;;;2.17;1.73;;;;;;;21.93;100.00;99275.34;5072198;28;20200;-76
2023/07/22 06:49:19;;;;;;;1.87;1.70;;;;;;;22.08;100.00;99271.50;5072660;28;20206;-76
2023/07/22 06:51:45;;;;;;;2.30;1.90;;;;;;;22.25;100.00;99277.16;5071019;28;20596;-76
2023/07/22 06:54:12;;;;;;;2.88;1.83;;;;;;;22.45;100.00;99278.63;5072444;28;20208;-76
2023/07/22 06:56:39;;;;;;;2.08;1.77;;;;;;;22.61;99.92;99275.28;5071979;28;20243;-75
2023/07/22 06:59:05;;;;;;;2.85;1.80;;;;;;;22.74;100.00;99288.13;5072084;28;20263;-75
2023/07/22 07:01:32;;;;;;;2.15;1.88;;;;;;;22.83;97.91;99288.19;5071984;28;20186;-76
2023/07/22 07:03:59;;;;;;;2.33;1.70;;;;;;;22.81;95.87;99290.44;5072296;28;20204;-75
2023/07/22 07:06:26;;;;;;;2.97;1.65;;;;;;;22.83;93.77;99297.19;5089111;28;20317;-75
2023/07/22 07:08:52;;;;;;;2.92;1.90;;;;;;;22.96;95.20;99292.00;5105240;28;20237;-76
2023/07/22 07:11:19;;;;;;;2.17;1.80;;;;;;;23.03;92.22;99284.19;5083195;28;20208;-76
2023/07/22 07:13:46;;;;;;;6.35;2.10;;;;;;;23.14;91.58;99285.56;5100843;28;20204;-76
2023/07/22 07:16:27;;;;;;;2.88;2.10;;;;;;;22.90;89.42;99288.59;5096231;28;20192;-75
2023/07/22 07:18:55;;;;;;;2.03;1.80;;;;;;;23.02;87.99;99288.84;5062151;28;20204;-75
2023/07/22 07:21:22;;;;;;;4.22;2.05;;;;;;;23.04;85.67;99296.75;5095966;28;20192;-75
2023/07/22 07:23:49;;;;;;;2.88;1.85;;;;;;;22.96;85.62;99289.25;5087340;28;20698;-76
2023/07/22 07:26:16;;;;;;;6.40;1.92;;;;;;;23.02;82.79;99285.31;5095323;28;20200;-75
2023/07/22 07:28:43;;;;;;;4.93;1.90;;;;;;;23.10;83.84;99298.22;5100367;28;20202;-78
2023/07/22 07:31:10;;;;;;;3.42;1.70;;;;;;;23.16;81.05;99299.72;5092499;28;20188;-75
2023/07/22 07:33:37;;;;;;;5.10;1.75;;;;;;;23.33;81.73;99290.84;5090272;28;20270;-75
2023/07/22 07:36:04;;;;;;;2.30;1.60;;;;;;;23.41;82.48;99296.38;5087049;28;20188;-75
2023/07/22 07:38:31;;;;;;;3.05;1.58;;;;;;;23.53;83.44;99301.28;5091041;28;20671;-76
2023/07/22 07:41:08;;;;;;;5.53;2.00;;;;;;;23.80;80.91;99295.63;5090063;28;20284;-75
2023/07/22 07:43:35;;;;;;;4.60;1.90;;;;;;;23.95;80.17;99299.91;5090285;28;20192;-76
2023/07/22 07:46:21;;;;;;;6.68;2.13;;;;;;;24.36;77.63;99313.28;5097902;28;20200;-76
2023/07/22 07:48:52;;;;;;;2.35;1.60;;;;;;;24.38;72.48;99297.34;5101519;28;20192;-76
2023/07/22 07:51:21;;;;;;;2.33;1.73;;;;;;;24.88;72.77;99306.81;5100571;28;20662;-75
2023/07/22 07:53:48;;;;;;;2.63;1.60;;;;;;;25.25;73.97;99301.78;5074502;28;20201;-75
2023/07/22 07:56:16;;;;;;;4.63;1.88;;;;;;;25.69;70.59;99295.94;5095104;28;20194;-75
2023/07/22 07:58:44;;;;;;;3.25;1.38;;;;;;;26.04;69.36;99301.28;5080834;28;20200;-75
2023/07/22 08:01:11;;;;;;;2.63;1.60;;;;;;;26.34;66.15;99304.91;5099384;28;20216;-75
2023/07/22 08:03:39;;;;;;;1.88;1.52;;;;;;;26.66;65.35;99306.97;5082362;28;20192;-75
2023/07/22 08:06:06;;;;;;;1.55;1.45;;;;;;;26.96;63.67;99311.34;5082314;28;20640;-78
2023/07/22 08:08:33;;;;;;;3.38;1.80;;;;;;;27.01;63.48;99313.88;5072610;28;20197;-76
2023/07/22 08:11:04;;;;;;;2.90;1.58;;;;;;;26.95;62.14;99322.66;5068431;28;20196;-75
2023/07/22 08:13:33;;;;;;;1.70;1.58;;;;;;;27.12;61.03;99317.81;5069867;28;20246;-76
2023/07/22 08:16:02;;;;;;;2.50;1.70;;;;;;;27.25;59.34;99324.16;5069027;28;20188;-75
2023/07/22 08:18:30;;;;;;;1.70;1.60;;;;;;;26.86;59.27;99327.41;5055365;28;20200;-78
2023/07/22 08:20:57;;;;;;;2.17;1.48;;;;;;;27.14;58.98;99323.78;5070754;28;20222;-76
2023/07/22 08:23:24;;;;;;;1.85;1.20;;;;;;;26.64;57.09;99323.78;5073899;28;20189;-78
2023/07/22 08:25:51;;;;;;;2.05;1.40;;;;;;;26.49;57.06;99329.06;5074390;28;20686;-75
2023/07/22 08:28:18;;;;;;;1.80;1.40;;;;;;;26.38;57.97;99330.56;5072251;28;20250;-74
2023/07/22 08:30:45;;;;;;;1.80;1.50;;;;;;;26.89;57.24;99337.72;5074240;28;20205;-76
2023/07/22 08:33:12;;;;;;;1.85;1.42;;;;;;;26.59;56.75;99337.75;5056260;28;20220;-78
2023/07/22 08:35:42;;;;;;;2.20;1.42;;;;;;;26.67;57.01;99347.88;5038601;28;20197;-75
2023/07/22 08:38:09;;;;;;;2.08;1.35;;;;;;;26.11;57.81;99342.78;5073669;28;20597;-76
2023/07/22 08:40:38;;;;;;;2.22;1.30;;;;;;;26.56;58.41;99341.13;5070281;28;20217;-76
2023/07/22 08:43:06;;;;;;;1.65;1.55;;;;;;;26.50;57.93;99347.94;5074245;28;20717;-76
2023/07/22 08:45:37;;;;;;;1.52;1.42;;;;;;;26.57;57.42;99351.00;5073387;28;20306;-75
2023/07/22 08:48:09;;;;;;;2.45;1.80;;;;;;;26.53;57.84;99352.78;5073355;28;20671;-77
2023/07/22 08:51:13;;;;;;;2.33;1.50;;;;;;;26.54;58.84;99351.66;5073755;28;20236;-76
2023/07/22 08:53:39;;;;;;;1.58;1.48;;;;;;;26.49;58.22;99346.38;5023367;28;20215;-75
2023/07/22 08:56:08;;;;;;;11.65;2.42;;;;;;;26.84;58.99;99346.94;5061676;28;20213;-76
2023/07/22 08:58:36;;;;;;;6.80;2.60;;;;;;;26.79;58.97;99349.06;5070670;28;20247;-76
2023/07/22 09:01:02;;;;;;;7.45;2.00;;;;;;;26.96;57.13;99349.00;5071022;28;20205;-77
2023/07/22 09:03:29;;;;;;;2.60;1.80;;;;;;;26.85;57.98;99345.81;5073710;28;20200;-77
2023/07/22 09:05:56;;;;;;;4.85;2.08;;;;;;;26.98;56.52;99354.97;5086717;28;20243;-76
2023/07/22 09:08:24;;;;;;;4.13;2.03;;;;;;;26.34;56.66;99352.41;5110042;28;20638;-76
2023/07/22 09:10:50;;;;;;;2.22;1.58;;;;;;;26.44;57.83;99353.97;5099835;28;20266;-76
2023/07/22 09:13:19;;;;;;;1.58;1.48;;;;;;;26.45;56.84;99363.84;5102722;28;20602;-77
2023/07/22 09:15:47;;;;;;;1.80;1.40;;;;;;;26.35;56.02;99351.28;5108615;28;20246;-76
2023/07/22 09:18:15;;;;;;;2.25;1.25;;;;;;;26.27;57.09;99346.59;5084385;28;20216;-76
2023/07/22 09:20:42;;;;;;;1.90;1.55;;;;;;;26.38;57.52;99360.78;5094709;28;20226;-76
2023/07/22 09:23:09;;;;;;;4.50;1.83;;;;;;;26.43;56.66;99363.34;5086467;28;20711;-76
2023/07/22 09:25:41;;;;;;;8.40;2.20;;;;;;;26.73;55.53;99356.72;5090043;28;20226;-77
2023/07/22 09:28:07;;;;;;;2.20;1.33;;;;;;;26.81;53.25;99364.09;5092851;28;20720;-77
2023/07/22 09:30:38;;;;;;;2.33;1.40;;;;;;;27.07;52.20;99363.94;5093558;28;20188;-76
2023/07/22 09:33:20;;;;;;;3.78;2.00;;;;;;;27.27;52.71;99362.34;5099959;28;20195;-76
2023/07/22 09:35:48;;;;;;;1.70;1.60;;;;;;;26.68;51.34;99346.75;5092469;28;20638;-77
2023/07/22 09:38:25;;;;;;;1.50;1.40;;;;;;;26.66;53.27;99348.19;5102222;28;20238;-76
2023/07/22 09:40:53;;;;;;;1.40;1.30;;;;;;;26.58;52.05;99344.38;5093133;28;20293;-76
2023/07/22 09:43:22;;;;;;;1.95;1.40;;;;;;;26.65;53.51;99344.63;5083598;28;20722;-77
2023/07/22 09:45:49;;;;;;;1.40;1.20;;;;;;;26.53;54.71;99335.50;5113728;28;20717;-75
2023/07/22 09:48:16;;;;;;;1.48;1.38;;;;;;;26.59;56.19;99343.25;5113373;28;20203;-76
2023/07/22 09:50:43;;;;;;;1.70;1.60;;;;;;;26.92;53.87;99334.31;5109962;28;20253;-77
2023/07/22 09:53:14;;;;;;;2.15;1.65;;;;;;;27.20;54.42;99338.16;5093145;28;20269;-76
2023/07/22 09:55:41;;;;;;;1.55;1.27;;;;;;;27.52;53.08;99340.16;5093528;28;20196;-78
2023/07/22 09:58:09;;;;;;;1.90;1.80;;;;;;;27.36;52.40;99335.56;5109527;28;20624;-78
2023/07/22 10:00:36;;;;;;;1.45;1.35;;;;;;;27.55;52.29;99341.41;5093910;28;20205;-76
2023/07/22 10:03:05;;;;;;;1.60;1.50;;;;;;;27.51;49.31;99338.53;5085388;28;20195;-77
2023/07/22 10:05:34;;;;;;;1.63;1.52;;;;;;;27.10;48.44;99333.06;5084735;28;20312;-77
2023/07/22 10:08:01;;;;;;;1.52;1.27;;;;;;;27.13;47.91;99326.88;5088258;28;20208;-75
2023/07/22 10:10:37;;;;;;;1.75;1.13;;;;;;;27.40;47.70;99322.75;5095050;28;20667;-77
2023/07/22 10:13:05;;;;;;;1.35;1.27;;;;;;;27.39;50.08;99323.91;5091944;28;20223;-76
2023/07/22 10:15:34;;;;;;;1.67;1.40;;;;;;;27.53;46.75;99319.72;5086520;28;20189;-77
2023/07/22 10:18:02;;;;;;;2.40;1.38;;;;;;;27.48;46.38;99314.44;5085790;28;20204;-76
2023/07/22 10:20:29;;;;;;;1.52;1.42;;;;;;;27.34;46.89;99307.59;5087399;28;20211;-75
2023/07/22 10:22:56;;;;;;;1.70;1.60;;;;;;;27.44;47.54;99310.72;5091348;28;20204;-78
2023/07/22 10:25:23;;;;;;;1.95;1.73;;;;;;;27.15;46.30;99310.84;5091684;28;20216;-78
2023/07/22 10:27:51;;;;;;;1.73;1.40;;;;;;;27.08;45.83;99305.88;5092065;28;20200;-77
2023/07/22 10:30:18;;;;;;;1.40;1.30;;;;;;;26.93;46.46;99298.25;5090731;28;20188;-79
2023/07/22 10:32:46;;;;;;;2.33;1.52;;;;;;;26.93;46.12;99297.44;5088977;28;20275;-78
2023/07/22 10:35:21;;;;;;;1.55;1.45;;;;;;;27.26;45.84;99287.28;5088634;28;20192;-78
2023/07/22 10:37:48;;;;;;;3.25;2.00;;;;;;;27.26;46.37;99292.78;5091627;28;20646;-78
2023/07/22 10:40:28;;;;;;;1.98;1.70;;;;;;;27.04;45.84;99290.41;5090409;28;20757;-78
2023/07/22 10:43:02;;;;;;;1.70;1.60;;;;;;;27.00;45.97;99295.78;5090405;28;20188;-77
2023/07/22 10:45:31;;;;;;;1.70;1.60;;;;;;;26.77;45.57;99282.66;5086950;28;20192;-77
2023/07/22 10:48:08;;;;;;;1.98;1.77;;;;;;;26.89;46.01;99286.31;5085226;28;20725;-78
2023/07/22 10:50:43;;;;;;;2.03;1.45;;;;;;;26.97;46.19;99279.16;5083926;28;20186;-78
2023/07/22 10:53:20;;;;;;;2.85;1.50;;;;;;;27.47;45.57;99276.25;5090583;28;20274;-78
2023/07/22 10:56:02;;;;;;;1.92;1.45;;;;;;;27.36;44.56;99267.59;5090826;28;20283;-79
2023/07/22 10:58:53;;;;;;;3.90;1.77;;;;;;;27.53;46.07;99269.38;5083176;28;20614;-78
2023/07/22 11:01:25;;;;;;;2.60;1.40;;;;;;;28.03;45.81;99271.91;5067914;28;20573;-78
2023/07/22 11:04:18;;;;;;;2.45;1.63;;;;;;;28.17;44.39;99277.09;5084801;28;20279;-78
2023/07/22 11:06:47;;;;;;;1.52;1.40;;;;;;;28.26;42.64;99273.06;5073062;28;20235;-78
2023/07/22 11:09:26;;;;;;;1.60;1.40;;;;;;;28.19;42.75;99263.75;5069320;28;20200;-80
2023/07/22 11:12:03;;;;;;;1.50;1.40;;;;;;;28.24;41.78;99260.78;5047072;28;20240;-79
2023/07/22 11:14:52;;;;;;;1.50;1.40;;;;;;;28.20;42.24;99257.91;5071408;28;20565;-78
2023/07/22 11:17:30;;;;;;;1.80;1.70;;;;;;;28.21;42.16;99253.22;5060586;28;20626;-78
2023/07/22 11:19:58;;;;;;;1.98;1.58;;;;;;;28.35;41.45;99246.22;5069238;28;20204;-78
2023/07/22 11:22:29;;;;;;;2.53;1.80;;;;;;;28.70;42.51;99248.41;5069521;28;20648;-79
2023/07/22 11:24:57;;;;;;;3.05;1.50;;;;;;;28.73;41.70;99261.56;5070106;28;20220;-78
2023/07/22 11:27:24;;;;;;;2.47;1.30;;;;;;;28.72;40.91;99246.16;5043826;28;20566;-78
2023/07/22 11:29:51;;;;;;;1.60;1.50;;;;;;;27.94;40.20;99238.97;5062635;28;20568;-78
2023/07/22 11:32:21;;;;;;;2.47;1.60;;;;;;;27.89;40.87;99243.91;5070564;28;20204;-78
2023/07/22 11:34:51;;;;;;;3.40;1.80;;;;;;;28.09;40.88;99239.44;5051113;28;20206;-78